»·PEaware :: UAL340 KDEN-KBOI

UAL340 :: KDEN-KBOI

FLIGHT INFORMATION

Flight Status: Arrived
Operator:
United Airlines
More flights by this operator :: More flights under this callsign
Pilot: Luc P. (3613)
Aircraft: BOEING 737-800
(B738)
More flights by this aircraft type
Origin: KDEN Denver Intl
United States
Destination: KBOI Boise Air Terminal/Gowen
United States
More flights between these airports :: More routes between these airports
Route: ZIMMR1 CHNGY REAPS KOURT3
File this flight plan on PilotEdge
Remarks: PBN / A1B1C1D1S1S2 NAV / RNVD1E2A1 DOF / 200505 REG / N37267 EET / KZLC0031 SEL / GPCS OPR / UAL PER / C RMK / TCAS
Altitude:
(Current/Filed)
38,000ft
Speed:
(Current/Filed)
455kts
Departed: 05-May-20 11:10 AM
Arrived: 05-May-20 12:57 PM
Distance/Time
Traveled:
563nm/1:46
Distance/Time
To Go:
Arrived

Flight Plot

Page will automatically refresh every two minutes.


Map Options




Map Legend


Flown Route
Filed Route
Departure Airport
Arrival Airport
Navaid (VOR, NDB)
Fix

Horizontal Profiles

Position Reports

Time Latitude Longitude Heading Altitude Ground
Speed
05-May-20 10:45 39.858071 -104.679575 10 5381ft 0kts
05-May-20 10:46 39.858071 -104.679575 10 5381ft 0kts
05-May-20 10:47 39.858071 -104.679575 10 5381ft 0kts
05-May-20 10:48 39.858071 -104.679575 10 5381ft 0kts
05-May-20 10:49 39.858071 -104.679575 10 5381ft 0kts
05-May-20 10:50 39.858071 -104.679575 10 5381ft 0kts
05-May-20 10:51 39.858071 -104.679575 10 5381ft 0kts
05-May-20 10:52 39.858071 -104.679575 10 5381ft 0kts
05-May-20 10:53 39.858071 -104.679575 10 5381ft 0kts
05-May-20 10:54 39.858071 -104.679575 10 5381ft 0kts
05-May-20 10:55 39.858071 -104.679575 10 5381ft 0kts
05-May-20 10:56 39.858071 -104.679575 10 5381ft 0kts
05-May-20 10:57 39.858070 -104.679575 10 5381ft 0kts
05-May-20 10:58 39.857675 -104.679504 331 5381ft 2kts
05-May-20 10:59 39.857349 -104.678880 274 5381ft 2kts
05-May-20 11:00 39.857353 -104.678564 270 5381ft 0kts
05-May-20 11:01 39.857353 -104.678564 270 5381ft 0kts
05-May-20 11:02 39.857353 -104.678646 270 5381ft 1kts
05-May-20 11:03 39.856778 -104.679674 227 5381ft 5kts
05-May-20 11:04 39.856851 -104.682284 273 5379ft 9kts
05-May-20 11:05 39.854822 -104.684003 180 5374ft 15kts
05-May-20 11:06 39.850456 -104.684062 179 5374ft 15kts
05-May-20 11:08 39.846133 -104.684107 180 5369ft 15kts
05-May-20 11:09 39.842071 -104.684159 180 5368ft 12kts
05-May-20 11:10 39.840685 -104.688056 270 5368ft 70kts
05-May-20 11:11 39.843617 -104.742089 290 6595ft 179kts
05-May-20 11:12 39.878716 -104.803065 309 7912ft 256kts
05-May-20 11:13 39.923410 -104.887080 300 10085ft 295kts
05-May-20 11:14 39.934990 -105.001739 272 12631ft 332kts
05-May-20 11:15 39.937201 -105.124999 274 15654ft 344kts
05-May-20 11:16 39.941460 -105.251894 277 18508ft 354kts
05-May-20 11:17 39.951889 -105.381684 278 21198ft 361kts
05-May-20 11:18 39.962333 -105.514315 278 23526ft 369kts
05-May-20 11:19 39.972771 -105.649882 278 25558ft 378kts
05-May-20 11:20 39.980299 -105.790118 276 27339ft 389kts
05-May-20 11:21 39.987337 -105.933177 276 29011ft 396kts
05-May-20 11:22 39.994460 -106.077996 277 30697ft 398kts
05-May-20 11:23 40.001324 -106.220795 278 32565ft 391kts
05-May-20 11:24 40.007907 -106.361056 279 34318ft 384kts
05-May-20 11:25 40.030354 -106.493338 297 35850ft 369kts
05-May-20 11:25 40.070972 -106.591115 301 36923ft 367kts
05-May-20 11:27 40.131114 -106.722377 301 38290ft 367kts
05-May-20 11:27 40.175409 -106.818105 301 38409ft 371kts
05-May-20 11:28 40.228485 -106.932845 301 38393ft 365kts
05-May-20 11:30 40.289834 -107.065896 301 38384ft 365kts
05-May-20 11:30 40.333461 -107.160857 301 38384ft 364kts
05-May-20 11:31 40.385473 -107.274435 301 38384ft 363kts
05-May-20 11:32 40.437126 -107.387628 301 38384ft 361kts
05-May-20 11:33 40.488663 -107.500990 301 38384ft 361kts
05-May-20 11:34 40.539874 -107.614036 301 38384ft 360kts
05-May-20 11:35 40.590492 -107.726438 301 38384ft 361kts
05-May-20 11:36 40.641335 -107.839742 301 38384ft 359kts
05-May-20 11:37 40.692175 -107.953244 301 38391ft 360kts
05-May-20 11:38 40.742750 -108.066550 301 38395ft 357kts
05-May-20 11:39 40.792956 -108.179450 301 38391ft 358kts
05-May-20 11:40 40.843148 -108.292664 300 38384ft 357kts
05-May-20 11:41 40.893340 -108.406306 300 38384ft 359kts
05-May-20 11:42 40.943581 -108.520464 300 38384ft 358kts
05-May-20 11:43 40.993536 -108.634385 300 38384ft 358kts
05-May-20 11:44 41.041884 -108.745408 300 38384ft 359kts
05-May-20 11:45 41.089582 -108.855259 300 38384ft 357kts
05-May-20 11:46 41.138694 -108.968595 300 38384ft 358kts
05-May-20 11:47 41.188030 -109.082809 300 38384ft 357kts
05-May-20 11:48 41.227922 -109.175506 300 38384ft 357kts
05-May-20 11:49 41.276896 -109.289725 299 38384ft 356kts
05-May-20 11:50 41.317006 -109.383600 299 38384ft 357kts
05-May-20 11:51 41.354402 -109.471387 299 38384ft 353kts
05-May-20 11:52 41.381037 -109.534193 299 38385ft 350kts
05-May-20 11:53 41.418884 -109.623691 299 38385ft 348kts
05-May-20 11:54 41.463700 -109.729908 299 38383ft 357kts
05-May-20 11:55 41.511562 -109.843821 299 38384ft 352kts
05-May-20 11:56 41.559680 -109.958676 299 38385ft 354kts
05-May-20 11:57 41.607350 -110.072683 297 38390ft 347kts
05-May-20 11:58 41.653976 -110.185135 297 38402ft 346kts
05-May-20 11:59 41.700793 -110.298132 297 38402ft 349kts
05-May-20 12:00 41.747775 -110.411882 297 38402ft 348kts
05-May-20 12:01 41.794434 -110.525332 297 38402ft 348kts
05-May-20 12:02 41.840902 -110.638739 297 38402ft 348kts
05-May-20 12:03 41.870903 -110.712454 297 38402ft 348kts
05-May-20 12:04 41.928956 -110.855431 297 38401ft 349kts
05-May-20 12:05 41.975464 -110.970247 297 38382ft 349kts
05-May-20 12:06 42.021745 -111.084934 296 38364ft 348kts
05-May-20 12:07 42.067869 -111.199726 296 38363ft 348kts
05-May-20 12:08 42.113331 -111.313258 296 38366ft 349kts
05-May-20 12:09 42.159029 -111.427801 296 38365ft 347kts
05-May-20 12:10 42.204661 -111.542730 296 38365ft 348kts
05-May-20 12:11 42.249765 -111.656709 295 38369ft 348kts
05-May-20 12:12 42.295250 -111.772617 295 38366ft 347kts
05-May-20 12:13 42.340409 -111.887836 295 38363ft 347kts
05-May-20 12:14 42.385547 -112.003294 295 38355ft 347kts
05-May-20 12:15 42.430701 -112.119224 295 38348ft 348kts
05-May-20 12:16 42.475718 -112.235280 295 38347ft 348kts
05-May-20 12:17 42.520453 -112.351061 295 38347ft 348kts
05-May-20 12:18 42.565244 -112.467458 295 38347ft 348kts
05-May-20 12:19 42.610031 -112.584324 295 38345ft 348kts
05-May-20 12:20 42.654183 -112.700197 294 38343ft 349kts
05-May-20 12:21 42.698542 -112.817305 294 38339ft 348kts
05-May-20 12:22 42.742936 -112.934684 294 38321ft 348kts
05-May-20 12:23 42.787311 -113.052397 294 38303ft 348kts
05-May-20 12:24 42.831386 -113.169802 294 38301ft 349kts
05-May-20 12:25 42.875516 -113.287821 294 38302ft 349kts
05-May-20 12:26 42.919420 -113.405793 293 38302ft 348kts
05-May-20 12:27 42.963187 -113.523892 293 38301ft 348kts
05-May-20 12:28 43.006746 -113.641866 293 38301ft 348kts
05-May-20 12:29 43.049887 -113.759676 292 38302ft 348kts
05-May-20 12:30 43.093130 -113.878100 292 38246ft 349kts
05-May-20 12:31 43.136714 -113.997338 292 36924ft 343kts
05-May-20 12:32 43.168943 -114.120279 282 35950ft 347kts
05-May-20 12:33 43.193858 -114.249180 283 34095ft 351kts
05-May-20 12:34 43.219359 -114.380387 283 31694ft 367kts
05-May-20 12:35 43.244593 -114.510608 283 29797ft 348kts
05-May-20 12:36 43.269742 -114.642443 282 27875ft 347kts
05-May-20 12:37 43.293552 -114.768993 282 26012ft 357kts
05-May-20 12:38 43.317749 -114.896714 282 24112ft 340kts
05-May-20 12:39 43.342148 -115.026275 282 22130ft 342kts
05-May-20 12:40 43.365308 -115.150248 281 20168ft 326kts
05-May-20 12:41 43.388113 -115.275729 281 18196ft 333kts
05-May-20 12:42 43.410241 -115.396551 281 16324ft 319kts
05-May-20 12:43 43.432840 -115.519805 282 14623ft 318kts
05-May-20 12:44 43.457806 -115.629493 291 13688ft 290kts
05-May-20 12:45 43.490735 -115.729465 291 12252ft 287kts
05-May-20 12:46 43.523313 -115.830015 292 10821ft 285kts
05-May-20 12:47 43.555940 -115.931040 292 9588ft 287kts
05-May-20 12:48 43.588053 -116.030257 292 8435ft 277kts
05-May-20 12:49 43.619696 -116.120299 296 7853ft 244kts
05-May-20 12:50 43.650848 -116.199998 296 6761ft 222kts
05-May-20 12:51 43.672319 -116.273402 265 5817ft 193kts
05-May-20 12:52 43.644765 -116.326240 199 4942ft 173kts
05-May-20 12:53 43.603230 -116.314285 154 3854ft 134kts
05-May-20 12:54 43.582114 -116.271351 118 3319ft 137kts
05-May-20 12:55 43.565784 -116.224009 116 2855ft 103kts
05-May-20 12:56 43.562440 -116.211325 4 2868ft 5kts
05-May-20 12:57 43.564162 -116.215620 295 2864ft 18kts
05-May-20 12:58 43.565953 -116.220861 294 2858ft 9kts
05-May-20 12:59 43.567140 -116.220794 25 2857ft 3kts

Navigation Log

Ident Type
Flight plan parsing failed, navigation log unavailable